createdAt,value
2019-04-05T00:02:12.999Z,97744.94
2019-04-05T00:04:39.303Z,97751.48
2019-04-05T00:07:05.429Z,97761.46
2019-04-05T00:09:31.982Z,97768.16
2019-04-05T00:11:58.214Z,97772.31
2019-04-05T00:14:24.392Z,97778.75
2019-04-05T00:16:51.005Z,97778.75
2019-04-05T00:19:17.283Z,97791.49
2019-04-05T00:21:43.418Z,97788.84
2019-04-05T00:24:09.976Z,97793.64
2019-04-05T00:26:36.126Z,97787.06
2019-04-05T00:29:04.271Z,97777.47
2019-04-05T00:31:30.562Z,97776.93
2019-04-05T00:33:56.801Z,97768.22
2019-04-05T00:36:23.375Z,97766.56
2019-04-05T00:38:49.527Z,97761.03
2019-04-05T00:41:15.702Z,97771.98
2019-04-05T00:43:42.245Z,97544.33
2019-04-05T00:46:08.601Z,97761.10
2019-04-05T00:48:34.789Z,97756.83
2019-04-05T00:51:01.272Z,97754.80
2019-04-05T00:53:27.430Z,97720.22
2019-04-05T00:55:53.572Z,97766.15
2019-04-05T00:58:20.206Z,97772.45
2019-04-05T01:00:46.396Z,97779.38
2019-04-05T01:03:13.322Z,97784.80
2019-04-05T01:05:40.164Z,97787.42
2019-04-05T01:08:06.329Z,97782.50
2019-04-05T01:10:39.498Z,97772.95
2019-04-05T01:13:05.771Z,97783.42
2019-04-05T01:15:40.708Z,97770.03
2019-04-05T01:17:59.983Z,97780.50
2019-04-05T01:20:29.739Z,97775.11
2019-04-05T01:22:56.753Z,97770.19
2019-04-05T01:25:23.246Z,97756.28
2019-04-05T01:27:49.612Z,97753.23
2019-04-05T01:30:16.241Z,97749.03
2019-04-05T01:32:42.452Z,97754.02
2019-04-05T01:35:09.093Z,97752.24
2019-04-05T01:37:36.553Z,97762.43
2019-04-05T01:40:05.227Z,97765.97
2019-04-05T01:42:31.441Z,97763.20
2019-04-05T01:44:58.125Z,97768.86
2019-04-05T01:47:24.380Z,97763.47
2019-04-05T01:49:51.707Z,97759.39
2019-04-05T01:52:18.299Z,97757.88
2019-04-05T01:54:44.449Z,97769.30
2019-04-05T01:57:12.273Z,97773.95
2019-04-05T01:59:40.250Z,97780.13
2019-04-05T02:02:08.120Z,97780.63
2019-04-05T02:04:35.719Z,97782.75
2019-04-05T02:07:02.383Z,97784.53
2019-04-05T02:09:28.531Z,97787.58
2019-04-05T02:11:54.774Z,97784.47
2019-04-05T02:14:21.263Z,97780.58
2019-04-05T02:16:47.420Z,97785.48
2019-04-05T02:19:13.679Z,97782.59
2019-04-05T02:21:39.820Z,97769.97
2019-04-05T02:24:06.375Z,97774.77
2019-04-05T02:26:32.631Z,97784.07
2019-04-05T02:28:58.920Z,97791.61
2019-04-05T02:31:25.569Z,97786.19
2019-04-05T02:33:52.346Z,97797.42
2019-04-05T02:36:18.649Z,97790.34
2019-04-05T02:38:44.916Z,97798.80
2019-04-05T02:41:11.683Z,97792.38
2019-04-05T02:43:39.592Z,97799.64
2019-04-05T02:46:22.136Z,97801.86
2019-04-05T02:48:35.899Z,97798.70
2019-04-05T02:51:02.878Z,97801.68
2019-04-05T02:53:30.449Z,97799.87
2019-04-05T02:55:57.361Z,97810.66
2019-04-05T02:58:23.866Z,97809.50
2019-04-05T03:00:50.155Z,97806.95
2019-04-05T03:03:16.824Z,97810.20
2019-04-05T03:05:43.362Z,97804.67
2019-04-05T03:08:09.898Z,97806.95
2019-04-05T03:10:55.171Z,97813.98
2019-04-05T03:13:23.039Z,97807.50
2019-04-05T03:15:49.957Z,97812.27
2019-04-05T03:18:17.367Z,97818.57
2019-04-05T03:20:43.576Z,97811.16
2019-04-05T03:23:09.837Z,97805.75
2019-04-05T03:25:36.486Z,97810.52
2019-04-05T03:28:02.609Z,97810.79
2019-04-05T03:30:28.853Z,97805.25
2019-04-05T03:32:58.011Z,97810.66
2019-04-05T03:35:24.339Z,97811.90
2019-04-05T03:37:50.469Z,97814.66
2019-04-05T03:40:17.295Z,97843.12
2019-04-05T03:42:43.678Z,97823.25
2019-04-05T03:45:10.139Z,97569.06
2019-04-05T03:47:37.097Z,97840.47
2019-04-05T03:50:08.863Z,97841.52
2019-04-05T03:52:35.095Z,97848.07
2019-04-05T03:55:02.003Z,97841.30
2019-04-05T03:57:28.394Z,97860.31
2019-04-05T03:59:54.619Z,97864.19
2019-04-05T04:02:23.490Z,97858.81
2019-04-05T04:04:50.536Z,97864.06
2019-04-05T04:07:16.702Z,97873.88
2019-04-05T04:09:42.815Z,97886.12
2019-04-05T04:12:09.178Z,97881.36
2019-04-05T04:14:35.453Z,97888.41
2019-04-05T04:17:11.997Z,97894.71
2019-04-05T04:19:29.991Z,97901.02
2019-04-05T04:22:16.858Z,97891.33
2019-04-05T04:24:43.344Z,97895.48
2019-04-05T04:27:10.318Z,97904.28
2019-04-05T04:29:36.965Z,97900.73
2019-04-05T04:32:03.862Z,97895.97
2019-04-05T04:34:30.506Z,97895.08
2019-04-05T04:36:56.803Z,97899.72
2019-04-05T04:39:23.294Z,97687.28
2019-04-05T04:41:50.610Z,97904.34
2019-04-05T04:44:17.853Z,97908.23
2019-04-05T04:46:44.284Z,97905.96
2019-04-05T04:49:10.530Z,97906.45
2019-04-05T04:51:36.942Z,97904.79
2019-04-05T04:54:03.750Z,97909.55
2019-04-05T04:56:30.008Z,97908.78
2019-04-05T04:58:56.149Z,97909.43
2019-04-05T05:01:22.752Z,97924.50
2019-04-05T05:03:48.883Z,97911.02
2019-04-05T05:06:15.294Z,97916.16
2019-04-05T05:08:41.927Z,97917.38
2019-04-05T05:11:14.466Z,97913.11
2019-04-05T05:13:36.330Z,97919.87
2019-04-05T05:16:03.119Z,97936.07
2019-04-05T05:18:29.303Z,97914.83
2019-04-05T05:20:55.442Z,97915.47
2019-04-05T05:23:22.052Z,97920.23
2019-04-05T05:25:48.409Z,97916.08
2019-04-05T05:28:14.809Z,97918.93
2019-04-05T05:30:41.763Z,97907.30
2019-04-05T05:33:08.097Z,97911.66
2019-04-05T05:35:34.453Z,97914.30
2019-04-05T05:38:01.509Z,97905.35
2019-04-05T05:40:34.854Z,97915.19
2019-04-05T05:42:55.813Z,97910.68
2019-04-05T05:45:21.974Z,97914.34
2019-04-05T05:47:52.097Z,97915.11
2019-04-05T05:50:16.996Z,97919.14
2019-04-05T05:52:43.148Z,97907.59
2019-04-05T05:55:09.549Z,97910.64
2019-04-05T05:57:35.991Z,97905.64
2019-04-05T06:00:07.219Z,97918.29
2019-04-05T06:02:33.649Z,97919.87
2019-04-05T06:05:00.092Z,97929.30
2019-04-05T06:07:26.411Z,97931.66
2019-04-05T06:09:52.542Z,97936.55
2019-04-05T06:12:19.115Z,97928.53
2019-04-05T06:14:45.247Z,97930.33
2019-04-05T06:17:11.401Z,97932.48
2019-04-05T06:19:37.865Z,97942.77
2019-04-05T06:22:04.047Z,97928.33
2019-04-05T06:24:30.211Z,97850.73
2019-04-05T06:26:56.751Z,97934.08
2019-04-05T06:29:23.200Z,97950.59
2019-04-05T06:31:49.330Z,97949.98
2019-04-05T06:34:16.005Z,97945.95
2019-04-05T06:36:42.126Z,97936.77
2019-04-05T06:39:08.265Z,97948.19
2019-04-05T06:41:34.298Z,97952.95
2019-04-05T06:44:00.341Z,97950.31
2019-04-05T06:46:26.378Z,97949.09
2019-04-05T06:48:53.172Z,97954.12
2019-04-05T06:51:19.185Z,97948.11
2019-04-05T06:53:45.535Z,97953.16
2019-04-05T06:56:12.136Z,97949.17
2019-04-05T06:58:38.295Z,97952.55
2019-04-05T07:01:04.565Z,97948.40
2019-04-05T07:03:31.080Z,97965.00
2019-04-05T07:05:57.369Z,97954.70
2019-04-05T07:08:23.598Z,97963.70
2019-04-05T07:10:49.745Z,97878.24
2019-04-05T07:13:16.157Z,97969.08
2019-04-05T07:15:42.211Z,97975.02
2019-04-05T07:18:08.773Z,97980.51
2019-04-05T07:20:34.938Z,97990.73
2019-04-05T07:23:01.081Z,97981.81
2019-04-05T07:25:29.533Z,97985.61
2019-04-05T07:27:55.990Z,97993.58
2019-04-05T07:30:22.142Z,97993.09
2019-04-05T07:32:48.754Z,97990.12
2019-04-05T07:35:15.268Z,97990.80
2019-04-05T07:37:41.738Z,97990.45
2019-04-05T07:40:08.434Z,98003.95
2019-04-05T07:42:34.576Z,98001.47
2019-04-05T07:45:00.829Z,97992.80
2019-04-05T07:47:27.251Z,97994.75
2019-04-05T07:49:53.393Z,97997.77
2019-04-05T07:52:19.512Z,97999.71
2019-04-05T07:54:46.118Z,97993.69
2019-04-05T07:57:12.373Z,97998.13
2019-04-05T07:59:38.715Z,97787.70
2019-04-05T08:02:05.007Z,97997.02
2019-04-05T08:04:31.234Z,97988.50
2019-04-05T08:06:59.883Z,97787.21
2019-04-05T08:09:26.598Z,97995.35
2019-04-05T08:12:00.650Z,97999.84
2019-04-05T08:14:27.299Z,97999.71
2019-04-05T08:16:54.869Z,98000.20
2019-04-05T08:19:21.154Z,98005.13
2019-04-05T08:21:47.641Z,97987.61
2019-04-05T08:24:14.148Z,97786.47
2019-04-05T08:26:40.546Z,97990.42
2019-04-05T08:29:07.377Z,97770.17
2019-04-05T08:31:33.789Z,97986.27
2019-04-05T08:34:00.034Z,97987.53
2019-04-05T08:36:26.341Z,97990.30
2019-04-05T08:38:53.192Z,97994.09
2019-04-05T08:41:19.946Z,97995.84
2019-04-05T08:43:47.352Z,97996.33
2019-04-05T08:46:13.697Z,98011.20
2019-04-05T08:48:40.004Z,98003.30
2019-04-05T08:51:06.569Z,97998.19
2019-04-05T08:53:32.976Z,98011.80
2019-04-05T08:55:59.423Z,98020.05
2019-04-05T08:58:33.284Z,98015.53
2019-04-05T09:00:53.853Z,98015.48
2019-04-05T09:03:20.223Z,98018.25
2019-04-05T09:05:46.805Z,98015.48
2019-04-05T09:08:13.364Z,98059.11
2019-04-05T09:10:40.736Z,98020.66
2019-04-05T09:13:07.198Z,98027.51
2019-04-05T09:15:33.324Z,98016.98
2019-04-05T09:17:59.660Z,98019.53
2019-04-05T09:20:26.139Z,98018.77
2019-04-05T09:22:52.192Z,98023.69
2019-04-05T09:25:19.790Z,98031.30
2019-04-05T09:27:46.503Z,98020.40
2019-04-05T09:30:12.795Z,98018.02
2019-04-05T09:32:38.818Z,98030.01
2019-04-05T09:35:05.560Z,98025.08
2019-04-05T09:37:31.788Z,98038.88
2019-04-05T09:39:58.171Z,98025.81
2019-04-05T09:42:24.566Z,98017.55
2019-04-05T09:44:51.698Z,98032.48
2019-04-05T09:47:17.834Z,98037.84
2019-04-05T09:49:44.166Z,98034.63
2019-04-05T09:52:10.425Z,98044.02
2019-04-05T09:54:36.783Z,98059.70
2019-04-05T09:57:03.339Z,98042.16
2019-04-05T09:59:29.566Z,98056.87
2019-04-05T10:01:55.865Z,98064.92
2019-04-05T10:04:22.282Z,98054.59
2019-04-05T10:06:48.567Z,98047.94
2019-04-05T10:09:14.705Z,98064.87
2019-04-05T10:11:41.185Z,98052.72
2019-04-05T10:14:07.487Z,98058.69
2019-04-05T10:16:33.588Z,98064.55
2019-04-05T10:18:59.763Z,98066.23
2019-04-05T10:21:25.908Z,98069.84
2019-04-05T10:23:52.062Z,98059.93
2019-04-05T10:26:18.645Z,98058.59
2019-04-05T10:28:45.060Z,98059.05
2019-04-05T10:31:11.408Z,98064.53
2019-04-05T10:33:37.901Z,98057.23
2019-04-05T10:36:04.113Z,98056.41
2019-04-05T10:38:30.440Z,98059.09
2019-04-05T10:40:56.899Z,98073.28
2019-04-05T10:43:24.200Z,98057.52
2019-04-05T10:45:50.811Z,98086.47
2019-04-05T10:48:17.509Z,98056.01
2019-04-05T10:50:43.827Z,98061.86
2019-04-05T10:53:10.417Z,98059.33
2019-04-05T10:55:37.568Z,98060.60
2019-04-05T10:58:04.358Z,98062.89
2019-04-05T11:00:30.489Z,98060.35
2019-04-05T11:02:56.616Z,98054.79
2019-04-05T11:05:23.653Z,98025.92
2019-04-05T11:07:54.997Z,98062.63
2019-04-05T11:10:22.579Z,98075.41
2019-04-05T11:12:50.168Z,98051.52
2019-04-05T11:15:17.050Z,98063.66
2019-04-05T11:17:46.395Z,98064.64
2019-04-05T11:20:21.350Z,98077.43
2019-04-05T11:22:41.119Z,98058.21
2019-04-05T11:25:08.143Z,98058.96
2019-04-05T11:27:40.151Z,98057.22
2019-04-05T11:30:08.691Z,97997.00
2019-04-05T11:32:35.033Z,98053.52
2019-04-05T11:35:01.426Z,98060.61
2019-04-05T11:37:28.989Z,98061.09
2019-04-05T11:39:56.004Z,98067.03
2019-04-05T11:42:26.442Z,97862.72
2019-04-05T11:44:54.839Z,98061.11
2019-04-05T11:47:21.579Z,98056.70
2019-04-05T11:49:50.386Z,98062.38
2019-04-05T11:52:17.391Z,98056.94
2019-04-05T11:54:43.841Z,98065.78
2019-04-05T11:57:11.678Z,98057.17
2019-04-05T11:59:37.807Z,98055.16
2019-04-05T12:02:14.003Z,98060.84
2019-04-05T12:04:42.699Z,98067.17
2019-04-05T12:07:08.636Z,98061.48
2019-04-05T12:09:34.775Z,98069.34
2019-04-05T12:12:01.084Z,98063.03
2019-04-05T12:14:30.406Z,98061.75
2019-04-05T12:16:55.760Z,98053.16
2019-04-05T12:19:21.973Z,98057.33
2019-04-05T12:21:48.623Z,98053.91
2019-04-05T12:24:14.754Z,98047.32
2019-04-05T12:26:42.633Z,98046.32
2019-04-05T12:29:09.624Z,98054.42
2019-04-05T12:31:35.988Z,98053.27
2019-04-05T12:34:02.422Z,98042.03
2019-04-05T12:36:28.995Z,98040.61
2019-04-05T12:38:55.497Z,98040.88
2019-04-05T12:41:21.654Z,98040.11
2019-04-05T12:43:50.957Z,98032.63
2019-04-05T12:46:16.699Z,98037.58
2019-04-05T12:48:45.526Z,98031.73
2019-04-05T12:51:13.146Z,98036.67
2019-04-05T12:53:40.273Z,98024.80
2019-04-05T12:56:06.411Z,97825.94
2019-04-05T12:58:35.291Z,98020.25
2019-04-05T13:01:08.132Z,98024.91
2019-04-05T13:03:35.200Z,98021.47
2019-04-05T13:06:03.004Z,98020.08
2019-04-05T13:08:36.867Z,98019.34
2019-04-05T13:11:07.789Z,98021.62
2019-04-05T13:13:34.308Z,98018.97
2019-04-05T13:16:09.791Z,98017.47
2019-04-05T13:18:35.002Z,98019.00
2019-04-05T13:21:14.304Z,98020.62
2019-04-05T13:23:38.999Z,98019.48
2019-04-05T13:26:07.184Z,98020.99
2019-04-05T13:28:35.752Z,98014.80
2019-04-05T13:31:05.168Z,98013.89
2019-04-05T13:33:37.601Z,98016.27
2019-04-05T13:36:09.248Z,98032.09
2019-04-05T13:38:54.199Z,98012.30
2019-04-05T13:41:11.393Z,98015.59
2019-04-05T13:43:37.627Z,98015.42
2019-04-05T13:46:04.083Z,98016.43
2019-04-05T13:48:30.324Z,98020.81
2019-04-05T13:50:56.680Z,98017.61
2019-04-05T13:53:23.104Z,98021.94
2019-04-05T13:55:50.435Z,98011.14
2019-04-05T13:58:16.718Z,98013.52
2019-04-05T14:00:43.236Z,98008.56
2019-04-05T14:03:09.410Z,98000.67
2019-04-05T14:05:35.606Z,98005.81
2019-04-05T14:08:10.438Z,98023.27
2019-04-05T14:10:30.350Z,98009.16
2019-04-05T14:12:56.572Z,97999.77
2019-04-05T14:15:23.300Z,98000.65
2019-04-05T14:17:49.787Z,97993.27
2019-04-05T14:20:19.559Z,97997.42
2019-04-05T14:22:45.029Z,97992.02
2019-04-05T14:25:11.936Z,97991.12
2019-04-05T14:27:38.245Z,98005.70
2019-04-05T14:30:05.450Z,97995.33
2019-04-05T14:32:31.815Z,97990.16
2019-04-05T14:34:59.016Z,97991.76
2019-04-05T14:37:25.365Z,97990.53
2019-04-05T14:39:51.667Z,97992.83
2019-04-05T14:55:09.849Z,97985.64
2019-04-05T14:57:36.637Z,97980.13
2019-04-05T15:00:06.143Z,97979.82
2019-04-05T15:02:32.582Z,97983.17
2019-04-05T15:04:59.139Z,97979.77
2019-04-05T15:07:25.416Z,97984.37
2019-04-05T15:09:54.649Z,97982.75
2019-04-05T15:12:20.082Z,97991.08
2019-04-05T15:14:46.340Z,97986.13
2019-04-05T15:17:12.491Z,97980.41
2019-04-05T15:19:39.015Z,97984.50
2019-04-05T15:22:06.328Z,97985.95
2019-04-05T15:24:32.793Z,97973.19
2019-04-05T15:26:59.299Z,97979.38
2019-04-05T15:29:26.117Z,97976.45
2019-04-05T15:31:53.405Z,97975.91
2019-04-05T15:34:21.431Z,97968.55
2019-04-05T15:36:47.684Z,97974.56
2019-04-05T15:39:14.035Z,97977.98
2019-04-05T15:41:42.464Z,97972.16
2019-04-05T15:44:09.245Z,97973.97
2019-04-05T15:46:35.470Z,97977.11
2019-04-05T15:49:02.904Z,97976.72
2019-04-05T15:51:29.047Z,97977.22
2019-04-05T15:53:55.345Z,97973.42
2019-04-05T15:56:21.913Z,97987.64
2019-04-05T15:58:49.056Z,97968.31
2019-04-05T16:01:15.894Z,97969.70
2019-04-05T16:03:42.231Z,97973.32
2019-04-05T16:06:08.594Z,97967.26
2019-04-05T16:08:35.003Z,97975.44
2019-04-05T16:11:01.169Z,97970.42
2019-04-05T16:13:27.407Z,97975.01
2019-04-05T16:15:53.787Z,97982.17
2019-04-05T16:18:20.028Z,97818.66
2019-04-05T16:20:46.485Z,97988.47
2019-04-05T16:23:12.710Z,97806.50
2019-04-05T16:25:39.230Z,97983.98
2019-04-05T16:28:05.505Z,97996.20
2019-04-05T16:30:33.949Z,97988.11
2019-04-05T16:33:00.418Z,97989.02
2019-04-05T16:35:27.080Z,97992.23
2019-04-05T16:37:53.268Z,97995.41
2019-04-05T16:40:20.266Z,97998.63
2019-04-05T16:42:46.806Z,98015.87
2019-04-05T16:45:13.678Z,98000.30
2019-04-05T16:47:40.203Z,97994.27
2019-04-05T16:50:07.849Z,97999.99
2019-04-05T16:52:44.115Z,97995.45
2019-04-05T16:55:04.058Z,97989.77
2019-04-05T16:57:30.520Z,97992.41
2019-04-05T16:59:56.809Z,97990.56
2019-04-05T17:02:23.051Z,97984.22
2019-04-05T17:04:49.549Z,97980.30
2019-04-05T17:07:15.697Z,97979.95
2019-04-05T17:09:41.989Z,97980.13
2019-04-05T17:12:08.707Z,97984.94
2019-04-05T17:14:34.869Z,97983.79
2019-04-05T17:17:01.062Z,97982.91
2019-04-05T17:19:27.322Z,97986.72
2019-04-05T17:21:53.777Z,97987.02
2019-04-05T17:24:20.085Z,97810.33
2019-04-05T17:26:46.587Z,97982.23
2019-04-05T17:29:12.899Z,97979.83
2019-04-05T17:31:39.277Z,97985.30
2019-04-05T17:34:05.416Z,97785.15
2019-04-05T17:36:31.626Z,97982.05
2019-04-05T17:38:58.257Z,97982.98
2019-04-05T17:41:24.865Z,97981.00
2019-04-05T17:43:51.065Z,97975.61
2019-04-05T17:46:17.320Z,97949.66
2019-04-05T17:48:43.590Z,97979.78
2019-04-05T17:51:10.212Z,98006.90
2019-04-05T17:53:36.403Z,97986.77
2019-04-05T17:56:03.350Z,97996.69
2019-04-05T17:58:32.107Z,97993.80
2019-04-05T18:00:58.882Z,97995.09
2019-04-05T18:03:26.262Z,97995.73
2019-04-05T18:05:59.971Z,97993.58
2019-04-05T18:08:26.533Z,97997.02
2019-04-05T18:10:53.434Z,97992.48
2019-04-05T18:13:19.739Z,97998.71
2019-04-05T18:15:52.636Z,97999.22
2019-04-05T18:18:16.609Z,98011.13
2019-04-05T18:20:48.039Z,97992.41
2019-04-05T18:23:24.271Z,98004.94
2019-04-05T18:25:45.198Z,98004.96
2019-04-05T18:28:11.967Z,97998.36
2019-04-05T18:30:38.584Z,98008.86
2019-04-05T18:33:05.747Z,98011.78
2019-04-05T18:35:31.876Z,98006.36
2019-04-05T18:37:58.184Z,98001.66
2019-04-05T18:40:25.510Z,97999.02
2019-04-05T18:42:51.725Z,98004.94
2019-04-05T18:45:17.840Z,98006.97
2019-04-05T18:47:44.368Z,98009.13
2019-04-05T18:50:10.726Z,98006.09
2019-04-05T18:52:36.973Z,98009.12
2019-04-05T18:55:06.438Z,98015.43
2019-04-05T18:57:32.705Z,98013.89
2019-04-05T18:59:59.023Z,98014.79
2019-04-05T19:02:27.863Z,98019.83
2019-04-05T19:04:53.993Z,98020.84
2019-04-05T19:07:22.319Z,98019.19
2019-04-05T19:09:48.550Z,97848.41
2019-04-05T19:12:14.773Z,98023.84
2019-04-05T19:14:41.285Z,98019.29
2019-04-05T19:17:07.653Z,98023.55
2019-04-05T19:19:34.026Z,98027.22
2019-04-05T19:22:00.461Z,98032.98
2019-04-05T19:24:27.137Z,97850.83
2019-04-05T19:26:53.461Z,97860.06
2019-04-05T19:29:19.629Z,98020.54
2019-04-05T19:49:05.361Z,98041.55
2019-04-05T19:51:35.939Z,98043.67
2019-04-05T19:54:03.320Z,98045.02
2019-04-05T19:56:29.694Z,98049.28
2019-04-05T19:58:56.258Z,97898.88
2019-04-05T20:01:22.644Z,98050.85
2019-04-05T20:03:48.794Z,97849.18
2019-04-05T20:06:15.199Z,98062.77
2019-04-05T20:08:41.314Z,98066.66
2019-04-05T20:11:07.524Z,98071.05
2019-04-05T20:13:34.125Z,98062.33
2019-04-05T20:16:00.248Z,98070.25
2019-04-05T20:18:26.419Z,98064.16
2019-04-05T20:20:53.122Z,98064.87
2019-04-05T20:23:19.548Z,98094.25
2019-04-05T20:25:45.953Z,98059.64
2019-04-05T20:28:12.569Z,98027.73
2019-04-05T20:30:39.190Z,98066.77
2019-04-05T20:33:05.566Z,98066.48
2019-04-05T20:35:32.020Z,98054.09
2019-04-05T20:37:58.457Z,98065.25
2019-04-05T20:40:24.608Z,98064.85
2019-04-05T20:42:51.290Z,98063.06
2019-04-05T20:45:17.455Z,98066.82
2019-04-05T20:47:43.822Z,98072.58
2019-04-05T20:50:10.791Z,98075.56
2019-04-05T20:52:36.864Z,98062.69
2019-04-05T20:55:05.184Z,98067.67
2019-04-05T20:57:31.417Z,98067.39
2019-04-05T20:59:57.719Z,98064.09
2019-04-05T21:02:23.845Z,98070.83
2019-04-05T21:04:50.268Z,98067.00
2019-04-05T21:07:16.405Z,98065.22
2019-04-05T21:09:42.764Z,98064.66
2019-04-05T21:12:09.163Z,98065.35
2019-04-05T21:14:35.612Z,98071.72
2019-04-05T21:17:01.842Z,98071.64
2019-04-05T21:19:28.593Z,98066.80
2019-04-05T21:21:54.818Z,98072.29
2019-04-05T21:24:21.112Z,98074.49
2019-04-05T21:26:47.270Z,98084.75
2019-04-05T21:29:13.453Z,98084.95
2019-04-05T21:31:39.934Z,98082.23
2019-04-05T21:34:06.087Z,98088.45
2019-04-05T21:36:32.289Z,98086.24
2019-04-05T21:38:58.800Z,98089.98
2019-04-05T21:41:25.009Z,98096.20
2019-04-05T21:43:51.394Z,98099.78
2019-04-05T21:46:17.882Z,98085.24
2019-04-05T21:48:43.996Z,98101.14
2019-04-05T21:51:10.434Z,98108.00
2019-04-05T21:53:36.981Z,98103.76
2019-04-05T21:56:03.260Z,98113.98
2019-04-05T21:58:29.549Z,98104.82
2019-04-05T22:01:01.478Z,98098.73
2019-04-05T22:03:29.129Z,98098.16
2019-04-05T22:05:55.314Z,98092.20
2019-04-05T22:08:22.138Z,98098.41
2019-04-05T22:10:51.213Z,98097.09
2019-04-05T22:13:17.385Z,98098.50
2019-04-05T22:15:43.934Z,98106.24
2019-04-05T22:18:10.085Z,98109.20
2019-04-05T22:20:36.329Z,98113.40
2019-04-05T22:23:05.023Z,98112.50
2019-04-05T22:25:31.256Z,98119.78
2019-04-05T22:27:57.443Z,98104.60
2019-04-05T22:30:23.962Z,98107.71
2019-04-05T22:32:50.097Z,98108.08
2019-04-05T22:35:16.270Z,98107.18
2019-04-05T22:37:42.447Z,98108.74
2019-04-05T22:40:08.731Z,98110.17
2019-04-05T22:42:34.880Z,98106.83
2019-04-05T22:45:01.113Z,98106.10
2019-04-05T22:47:27.156Z,98113.06
2019-04-05T22:49:53.560Z,98100.67
2019-04-05T22:52:19.706Z,98107.76
2019-04-05T22:54:46.348Z,98114.37
2019-04-05T22:57:12.575Z,98108.71
2019-04-05T22:59:38.780Z,98111.91
2019-04-05T23:02:05.259Z,98112.20
2019-04-05T23:04:31.325Z,98105.72
2019-04-05T23:06:57.583Z,98106.28
2019-04-05T23:09:24.285Z,98105.92
2019-04-05T23:11:50.468Z,98115.70
2019-04-05T23:14:16.680Z,98121.48
2019-04-05T23:16:43.227Z,98118.05
2019-04-05T23:19:09.570Z,98117.39
2019-04-05T23:21:35.716Z,98125.92
2019-04-05T23:24:02.346Z,98118.22
2019-04-05T23:26:28.951Z,98125.84
2019-04-05T23:28:55.285Z,98122.55
2019-04-05T23:31:21.826Z,98128.98
2019-04-05T23:33:48.069Z,98127.41
2019-04-05T23:36:14.240Z,98136.55
2019-04-05T23:38:40.996Z,98132.63
2019-04-05T23:41:07.354Z,98130.58
2019-04-05T23:43:33.796Z,98131.30
2019-04-05T23:46:00.386Z,98137.70
2019-04-05T23:48:26.469Z,98141.78
2019-04-05T23:50:52.723Z,98128.66
2019-04-05T23:53:19.158Z,98138.15
2019-04-05T23:55:45.378Z,98136.70
2019-04-05T23:58:11.659Z,98135.89
